sensor_id;sensor_type;location;lat;lon;timestamp;P1;durP1;ratioP1;P2;durP2;ratioP2
76863;SDS011;65834;52.364;9.754;2023-12-14T00:01:39;7.93;;;3.20;;
76863;SDS011;65834;52.364;9.754;2023-12-14T00:04:09;8.02;;;3.10;;
76863;SDS011;65834;52.364;9.754;2023-12-14T00:06:38;11.10;;;3.97;;
76863;SDS011;65834;52.364;9.754;2023-12-14T00:09:08;11.57;;;4.50;;
76863;SDS011;65834;52.364;9.754;2023-12-14T00:11:38;11.77;;;3.93;;
76863;SDS011;65834;52.364;9.754;2023-12-14T00:14:08;10.43;;;3.80;;
76863;SDS011;65834;52.364;9.754;2023-12-14T00:16:40;10.70;;;4.23;;
76863;SDS011;65834;52.364;9.754;2023-12-14T00:19:10;12.38;;;4.32;;
76863;SDS011;65834;52.364;9.754;2023-12-14T00:21:39;12.93;;;5.27;;
76863;SDS011;65834;52.364;9.754;2023-12-14T00:24:09;11.30;;;4.17;;
76863;SDS011;65834;52.364;9.754;2023-12-14T00:26:38;12.63;;;4.40;;
76863;SDS011;65834;52.364;9.754;2023-12-14T00:29:08;12.03;;;4.83;;
76863;SDS011;65834;52.364;9.754;2023-12-14T00:31:40;11.90;;;4.60;;
76863;SDS011;65834;52.364;9.754;2023-12-14T00:34:10;10.88;;;4.13;;
76863;SDS011;65834;52.364;9.754;2023-12-14T00:36:39;11.47;;;4.13;;
76863;SDS011;65834;52.364;9.754;2023-12-14T00:39:09;11.70;;;4.57;;
76863;SDS011;65834;52.364;9.754;2023-12-14T00:41:39;13.00;;;4.40;;
76863;SDS011;65834;52.364;9.754;2023-12-14T00:44:09;10.60;;;4.43;;
76863;SDS011;65834;52.364;9.754;2023-12-14T00:46:41;11.90;;;3.50;;
76863;SDS011;65834;52.364;9.754;2023-12-14T00:49:11;10.65;;;4.00;;
76863;SDS011;65834;52.364;9.754;2023-12-14T00:51:40;10.43;;;3.90;;
76863;SDS011;65834;52.364;9.754;2023-12-14T00:54:10;10.33;;;3.97;;
76863;SDS011;65834;52.364;9.754;2023-12-14T00:56:39;9.50;;;3.67;;
76863;SDS011;65834;52.364;9.754;2023-12-14T00:59:09;10.27;;;3.83;;
76863;SDS011;65834;52.364;9.754;2023-12-14T01:01:41;8.53;;;3.67;;
76863;SDS011;65834;52.364;9.754;2023-12-14T01:04:11;10.75;;;4.10;;
76863;SDS011;65834;52.364;9.754;2023-12-14T01:06:40;9.50;;;3.47;;
76863;SDS011;65834;52.364;9.754;2023-12-14T01:09:10;10.90;;;3.40;;
76863;SDS011;65834;52.364;9.754;2023-12-14T01:11:40;8.80;;;3.33;;
76863;SDS011;65834;52.364;9.754;2023-12-14T01:14:09;11.03;;;3.70;;
76863;SDS011;65834;52.364;9.754;2023-12-14T01:16:41;9.93;;;3.47;;
76863;SDS011;65834;52.364;9.754;2023-12-14T01:19:11;10.13;;;3.88;;
76863;SDS011;65834;52.364;9.754;2023-12-14T01:21:41;10.00;;;3.83;;
76863;SDS011;65834;52.364;9.754;2023-12-14T01:24:10;8.80;;;3.53;;
76863;SDS011;65834;52.364;9.754;2023-12-14T01:26:40;9.77;;;3.77;;
76863;SDS011;65834;52.364;9.754;2023-12-14T01:29:10;9.77;;;3.87;;
76863;SDS011;65834;52.364;9.754;2023-12-14T01:31:42;9.40;;;3.40;;
76863;SDS011;65834;52.364;9.754;2023-12-14T01:34:12;11.63;;;3.85;;
76863;SDS011;65834;52.364;9.754;2023-12-14T01:36:42;10.33;;;4.17;;
76863;SDS011;65834;52.364;9.754;2023-12-14T01:39:11;12.00;;;4.87;;
76863;SDS011;65834;52.364;9.754;2023-12-14T01:41:41;10.03;;;3.33;;
76863;SDS011;65834;52.364;9.754;2023-12-14T01:44:10;11.30;;;4.43;;
76863;SDS011;65834;52.364;9.754;2023-12-14T01:46:42;12.13;;;4.17;;
76863;SDS011;65834;52.364;9.754;2023-12-14T01:49:12;14.13;;;4.40;;
76863;SDS011;65834;52.364;9.754;2023-12-14T01:51:41;11.70;;;4.30;;
76863;SDS011;65834;52.364;9.754;2023-12-14T01:54:11;9.63;;;3.67;;
76863;SDS011;65834;52.364;9.754;2023-12-14T01:56:41;9.37;;;3.67;;
76863;SDS011;65834;52.364;9.754;2023-12-14T01:59:10;9.67;;;3.57;;
76863;SDS011;65834;52.364;9.754;2023-12-14T02:01:43;9.93;;;3.83;;
76863;SDS011;65834;52.364;9.754;2023-12-14T02:04:14;11.00;;;3.73;;
76863;SDS011;65834;52.364;9.754;2023-12-14T02:06:43;12.50;;;4.50;;
76863;SDS011;65834;52.364;9.754;2023-12-14T02:09:13;11.53;;;4.60;;
76863;SDS011;65834;52.364;9.754;2023-12-14T02:11:42;10.77;;;4.00;;
76863;SDS011;65834;52.364;9.754;2023-12-14T02:14:12;11.27;;;4.23;;
76863;SDS011;65834;52.364;9.754;2023-12-14T02:16:44;12.50;;;4.83;;
76863;SDS011;65834;52.364;9.754;2023-12-14T02:19:14;11.27;;;4.13;;
76863;SDS011;65834;52.364;9.754;2023-12-14T02:21:43;12.03;;;4.57;;
76863;SDS011;65834;52.364;9.754;2023-12-14T02:24:15;11.13;;;3.70;;
76863;SDS011;65834;52.364;9.754;2023-12-14T02:26:45;12.18;;;4.30;;
76863;SDS011;65834;52.364;9.754;2023-12-14T02:29:29;10.13;;;3.93;;
76863;SDS011;65834;52.364;9.754;2023-12-14T02:31:58;12.20;;;4.27;;
76863;SDS011;65834;52.364;9.754;2023-12-14T02:34:29;12.73;;;5.00;;
76863;SDS011;65834;52.364;9.754;2023-12-14T02:36:59;12.20;;;4.83;;
76863;SDS011;65834;52.364;9.754;2023-12-14T02:39:31;11.17;;;4.20;;
76863;SDS011;65834;52.364;9.754;2023-12-14T02:42:02;10.82;;;4.68;;
76863;SDS011;65834;52.364;9.754;2023-12-14T02:44:31;14.00;;;5.60;;
76863;SDS011;65834;52.364;9.754;2023-12-14T02:47:01;12.33;;;4.00;;
76863;SDS011;65834;52.364;9.754;2023-12-14T02:49:31;12.77;;;4.53;;
76863;SDS011;65834;52.364;9.754;2023-12-14T02:52:00;12.93;;;4.60;;
76863;SDS011;65834;52.364;9.754;2023-12-14T02:54:32;13.03;;;4.63;;
76863;SDS011;65834;52.364;9.754;2023-12-14T02:57:02;10.63;;;4.32;;
76863;SDS011;65834;52.364;9.754;2023-12-14T02:59:32;11.00;;;3.87;;
76863;SDS011;65834;52.364;9.754;2023-12-14T03:02:02;11.10;;;4.13;;
76863;SDS011;65834;52.364;9.754;2023-12-14T03:04:32;8.97;;;3.70;;
76863;SDS011;65834;52.364;9.754;2023-12-14T03:07:02;12.53;;;4.30;;
76863;SDS011;65834;52.364;9.754;2023-12-14T03:09:34;11.63;;;4.43;;
76863;SDS011;65834;52.364;9.754;2023-12-14T03:12:04;12.05;;;4.75;;
76863;SDS011;65834;52.364;9.754;2023-12-14T03:14:34;11.47;;;4.53;;
76863;SDS011;65834;52.364;9.754;2023-12-14T03:17:03;11.30;;;4.37;;
76863;SDS011;65834;52.364;9.754;2023-12-14T03:19:33;10.20;;;4.13;;
76863;SDS011;65834;52.364;9.754;2023-12-14T03:22:03;10.90;;;4.50;;
76863;SDS011;65834;52.364;9.754;2023-12-14T03:24:35;11.10;;;4.63;;
76863;SDS011;65834;52.364;9.754;2023-12-14T03:27:05;10.02;;;4.38;;
76863;SDS011;65834;52.364;9.754;2023-12-14T03:29:34;10.30;;;4.50;;
76863;SDS011;65834;52.364;9.754;2023-12-14T03:32:04;11.13;;;4.53;;
76863;SDS011;65834;52.364;9.754;2023-12-14T03:34:34;11.03;;;4.33;;
76863;SDS011;65834;52.364;9.754;2023-12-14T03:37:03;10.63;;;4.30;;
76863;SDS011;65834;52.364;9.754;2023-12-14T03:39:35;11.23;;;3.90;;
76863;SDS011;65834;52.364;9.754;2023-12-14T03:42:05;9.35;;;4.05;;
76863;SDS011;65834;52.364;9.754;2023-12-14T03:44:34;10.07;;;3.70;;
76863;SDS011;65834;52.364;9.754;2023-12-14T03:47:04;10.50;;;4.20;;
76863;SDS011;65834;52.364;9.754;2023-12-14T03:49:36;10.27;;;4.27;;
76863;SDS011;65834;52.364;9.754;2023-12-14T03:52:06;11.70;;;4.30;;
76863;SDS011;65834;52.364;9.754;2023-12-14T03:54:38;9.77;;;4.60;;
76863;SDS011;65834;52.364;9.754;2023-12-14T03:57:08;9.77;;;4.15;;
76863;SDS011;65834;52.364;9.754;2023-12-14T03:59:38;9.40;;;3.50;;
76863;SDS011;65834;52.364;9.754;2023-12-14T04:02:08;13.57;;;4.20;;
76863;SDS011;65834;52.364;9.754;2023-12-14T04:04:39;11.27;;;4.13;;
76863;SDS011;65834;52.364;9.754;2023-12-14T04:07:09;9.77;;;3.83;;
76863;SDS011;65834;52.364;9.754;2023-12-14T04:09:41;11.30;;;4.13;;
76863;SDS011;65834;52.364;9.754;2023-12-14T04:12:10;11.90;;;4.38;;
76863;SDS011;65834;52.364;9.754;2023-12-14T04:14:40;11.97;;;4.00;;
76863;SDS011;65834;52.364;9.754;2023-12-14T04:17:11;9.80;;;3.50;;
76863;SDS011;65834;52.364;9.754;2023-12-14T04:19:41;9.57;;;4.00;;
76863;SDS011;65834;52.364;9.754;2023-12-14T04:22:11;9.03;;;3.83;;
76863;SDS011;65834;52.364;9.754;2023-12-14T04:24:43;10.27;;;4.20;;
76863;SDS011;65834;52.364;9.754;2023-12-14T04:27:12;9.55;;;3.55;;
76863;SDS011;65834;52.364;9.754;2023-12-14T04:29:42;8.87;;;3.47;;
76863;SDS011;65834;52.364;9.754;2023-12-14T04:32:11;9.93;;;4.00;;
76863;SDS011;65834;52.364;9.754;2023-12-14T04:34:41;9.73;;;3.73;;
76863;SDS011;65834;52.364;9.754;2023-12-14T04:37:11;9.40;;;3.73;;
76863;SDS011;65834;52.364;9.754;2023-12-14T04:39:43;10.60;;;4.00;;
76863;SDS011;65834;52.364;9.754;2023-12-14T04:42:12;12.48;;;4.28;;
76863;SDS011;65834;52.364;9.754;2023-12-14T04:44:42;9.50;;;3.67;;
76863;SDS011;65834;52.364;9.754;2023-12-14T04:47:11;8.10;;;3.73;;
76863;SDS011;65834;52.364;9.754;2023-12-14T04:49:41;9.80;;;3.80;;
76863;SDS011;65834;52.364;9.754;2023-12-14T04:52:10;10.33;;;4.07;;
76863;SDS011;65834;52.364;9.754;2023-12-14T04:54:42;11.50;;;4.00;;
76863;SDS011;65834;52.364;9.754;2023-12-14T04:57:12;8.57;;;3.78;;
76863;SDS011;65834;52.364;9.754;2023-12-14T04:59:41;9.60;;;3.87;;
76863;SDS011;65834;52.364;9.754;2023-12-14T05:02:11;10.97;;;4.47;;
76863;SDS011;65834;52.364;9.754;2023-12-14T05:04:41;9.67;;;3.80;;
76863;SDS011;65834;52.364;9.754;2023-12-14T05:07:10;11.13;;;4.17;;
76863;SDS011;65834;52.364;9.754;2023-12-14T05:09:42;11.33;;;4.20;;
76863;SDS011;65834;52.364;9.754;2023-12-14T05:12:12;14.80;;;4.53;;
76863;SDS011;65834;52.364;9.754;2023-12-14T05:14:41;10.93;;;4.53;;
76863;SDS011;65834;52.364;9.754;2023-12-14T05:17:11;12.27;;;4.60;;
76863;SDS011;65834;52.364;9.754;2023-12-14T05:19:40;10.70;;;4.17;;
76863;SDS011;65834;52.364;9.754;2023-12-14T05:22:11;10.17;;;4.20;;
76863;SDS011;65834;52.364;9.754;2023-12-14T05:24:44;11.27;;;4.63;;
76863;SDS011;65834;52.364;9.754;2023-12-14T05:27:15;10.53;;;4.40;;
76863;SDS011;65834;52.364;9.754;2023-12-14T05:29:45;12.23;;;4.53;;
76863;SDS011;65834;52.364;9.754;2023-12-14T05:32:15;10.23;;;4.27;;
76863;SDS011;65834;52.364;9.754;2023-12-14T05:34:45;11.53;;;4.43;;
76863;SDS011;65834;52.364;9.754;2023-12-14T05:37:14;12.03;;;4.37;;
76863;SDS011;65834;52.364;9.754;2023-12-14T05:39:46;12.50;;;4.80;;
76863;SDS011;65834;52.364;9.754;2023-12-14T05:42:16;12.95;;;4.55;;
76863;SDS011;65834;52.364;9.754;2023-12-14T05:44:45;10.53;;;4.40;;
76863;SDS011;65834;52.364;9.754;2023-12-14T05:47:15;10.63;;;4.20;;
76863;SDS011;65834;52.364;9.754;2023-12-14T05:49:45;11.03;;;4.63;;
76863;SDS011;65834;52.364;9.754;2023-12-14T05:52:15;10.33;;;4.13;;
76863;SDS011;65834;52.364;9.754;2023-12-14T05:54:47;12.10;;;4.37;;
76863;SDS011;65834;52.364;9.754;2023-12-14T05:57:16;10.90;;;4.07;;
76863;SDS011;65834;52.364;9.754;2023-12-14T05:59:46;10.20;;;3.90;;
76863;SDS011;65834;52.364;9.754;2023-12-14T06:02:15;9.03;;;3.63;;
76863;SDS011;65834;52.364;9.754;2023-12-14T06:04:45;9.70;;;4.20;;
76863;SDS011;65834;52.364;9.754;2023-12-14T06:07:15;8.17;;;3.33;;
76863;SDS011;65834;52.364;9.754;2023-12-14T06:09:47;11.17;;;4.13;;
76863;SDS011;65834;52.364;9.754;2023-12-14T06:12:17;10.15;;;3.72;;
76863;SDS011;65834;52.364;9.754;2023-12-14T06:14:46;8.90;;;3.10;;
76863;SDS011;65834;52.364;9.754;2023-12-14T06:17:16;8.80;;;3.73;;
76863;SDS011;65834;52.364;9.754;2023-12-14T06:19:46;8.53;;;3.40;;
76863;SDS011;65834;52.364;9.754;2023-12-14T06:22:15;8.77;;;3.30;;
76863;SDS011;65834;52.364;9.754;2023-12-14T06:24:47;10.17;;;3.67;;
76863;SDS011;65834;52.364;9.754;2023-12-14T06:27:17;10.27;;;3.00;;
76863;SDS011;65834;52.364;9.754;2023-12-14T06:29:49;10.82;;;3.70;;
76863;SDS011;65834;52.364;9.754;2023-12-14T06:32:19;8.23;;;3.40;;
76863;SDS011;65834;52.364;9.754;2023-12-14T06:34:48;8.47;;;3.20;;
76863;SDS011;65834;52.364;9.754;2023-12-14T06:37:19;9.53;;;3.53;;
76863;SDS011;65834;52.364;9.754;2023-12-14T06:39:51;10.03;;;3.53;;
76863;SDS011;65834;52.364;9.754;2023-12-14T06:42:20;9.35;;;3.35;;
76863;SDS011;65834;52.364;9.754;2023-12-14T06:44:50;9.63;;;3.53;;
76863;SDS011;65834;52.364;9.754;2023-12-14T06:47:19;9.70;;;3.50;;
76863;SDS011;65834;52.364;9.754;2023-12-14T06:49:49;8.60;;;3.30;;
76863;SDS011;65834;52.364;9.754;2023-12-14T06:52:18;10.07;;;3.37;;
76863;SDS011;65834;52.364;9.754;2023-12-14T06:54:51;11.43;;;4.10;;
76863;SDS011;65834;52.364;9.754;2023-12-14T06:57:20;11.35;;;3.70;;
76863;SDS011;65834;52.364;9.754;2023-12-14T06:59:53;10.10;;;3.92;;
76863;SDS011;65834;52.364;9.754;2023-12-14T07:02:22;9.90;;;3.67;;
76863;SDS011;65834;52.364;9.754;2023-12-14T07:04:52;10.60;;;3.83;;
76863;SDS011;65834;52.364;9.754;2023-12-14T07:07:21;11.53;;;4.20;;
76863;SDS011;65834;52.364;9.754;2023-12-14T07:09:53;7.67;;;3.37;;
76863;SDS011;65834;52.364;9.754;2023-12-14T07:12:23;10.05;;;4.03;;
76863;SDS011;65834;52.364;9.754;2023-12-14T07:14:53;10.50;;;4.07;;
76863;SDS011;65834;52.364;9.754;2023-12-14T07:17:22;10.03;;;4.10;;
76863;SDS011;65834;52.364;9.754;2023-12-14T07:19:52;11.30;;;4.20;;
76863;SDS011;65834;52.364;9.754;2023-12-14T07:22:25;11.77;;;4.50;;
76863;SDS011;65834;52.364;9.754;2023-12-14T07:24:57;11.47;;;3.97;;
76863;SDS011;65834;52.364;9.754;2023-12-14T07:27:27;11.10;;;4.00;;
76863;SDS011;65834;52.364;9.754;2023-12-14T07:29:57;11.70;;;4.47;;
76863;SDS011;65834;52.364;9.754;2023-12-14T07:32:28;11.20;;;4.23;;
76863;SDS011;65834;52.364;9.754;2023-12-14T07:34:58;10.73;;;4.33;;
76863;SDS011;65834;52.364;9.754;2023-12-14T07:37:37;10.67;;;4.33;;
76863;SDS011;65834;52.364;9.754;2023-12-14T07:40:09;12.43;;;4.60;;
76863;SDS011;65834;52.364;9.754;2023-12-14T07:42:39;11.57;;;4.23;;
76863;SDS011;65834;52.364;9.754;2023-12-14T07:45:09;11.20;;;4.13;;
76863;SDS011;65834;52.364;9.754;2023-12-14T07:47:38;11.40;;;4.13;;
76863;SDS011;65834;52.364;9.754;2023-12-14T07:50:09;10.83;;;4.10;;
76863;SDS011;65834;52.364;9.754;2023-12-14T07:52:39;9.10;;;3.63;;
76863;SDS011;65834;52.364;9.754;2023-12-14T07:55:11;9.63;;;3.80;;
76863;SDS011;65834;52.364;9.754;2023-12-14T07:57:41;9.30;;;3.47;;
76863;SDS011;65834;52.364;9.754;2023-12-14T08:00:11;8.57;;;3.23;;
76863;SDS011;65834;52.364;9.754;2023-12-14T08:02:43;9.38;;;3.70;;
76863;SDS011;65834;52.364;9.754;2023-12-14T08:05:13;10.87;;;3.70;;
76863;SDS011;65834;52.364;9.754;2023-12-14T08:07:42;9.90;;;3.50;;
76863;SDS011;65834;52.364;9.754;2023-12-14T08:10:14;6.93;;;2.83;;
76863;SDS011;65834;52.364;9.754;2023-12-14T08:12:44;9.25;;;3.50;;
76863;SDS011;65834;52.364;9.754;2023-12-14T08:15:14;9.50;;;3.30;;
76863;SDS011;65834;52.364;9.754;2023-12-14T08:17:43;7.83;;;3.07;;
76863;SDS011;65834;52.364;9.754;2023-12-14T08:20:13;9.70;;;2.93;;
76863;SDS011;65834;52.364;9.754;2023-12-14T08:22:43;10.00;;;3.10;;
76863;SDS011;65834;52.364;9.754;2023-12-14T08:25:15;8.63;;;3.20;;
76863;SDS011;65834;52.364;9.754;2023-12-14T08:27:45;8.27;;;2.92;;
76863;SDS011;65834;52.364;9.754;2023-12-14T08:30:15;8.93;;;3.63;;
76863;SDS011;65834;52.364;9.754;2023-12-14T08:32:45;9.40;;;3.00;;
76863;SDS011;65834;52.364;9.754;2023-12-14T08:35:14;9.63;;;3.07;;
76863;SDS011;65834;52.364;9.754;2023-12-14T08:37:44;13.30;;;3.57;;
76863;SDS011;65834;52.364;9.754;2023-12-14T08:40:16;9.83;;;3.40;;
76863;SDS011;65834;52.364;9.754;2023-12-14T08:42:46;10.60;;;4.00;;
76863;SDS011;65834;52.364;9.754;2023-12-14T08:45:16;11.17;;;3.70;;
76863;SDS011;65834;52.364;9.754;2023-12-14T08:47:46;9.27;;;3.37;;
76863;SDS011;65834;52.364;9.754;2023-12-14T08:50:15;10.43;;;3.80;;
76863;SDS011;65834;52.364;9.754;2023-12-14T08:52:45;10.50;;;3.47;;
76863;SDS011;65834;52.364;9.754;2023-12-14T08:55:18;9.57;;;3.10;;
76863;SDS011;65834;52.364;9.754;2023-12-14T08:57:48;8.98;;;3.22;;
76863;SDS011;65834;52.364;9.754;2023-12-14T09:00:18;11.50;;;3.60;;
76863;SDS011;65834;52.364;9.754;2023-12-14T09:02:48;9.27;;;3.40;;
76863;SDS011;65834;52.364;9.754;2023-12-14T09:05:18;9.00;;;3.37;;
76863;SDS011;65834;52.364;9.754;2023-12-14T09:07:47;11.17;;;3.63;;
76863;SDS011;65834;52.364;9.754;2023-12-14T09:10:24;9.47;;;3.70;;
76863;SDS011;65834;52.364;9.754;2023-12-14T09:12:53;10.75;;;3.70;;
76863;SDS011;65834;52.364;9.754;2023-12-14T09:15:23;10.00;;;3.47;;
76863;SDS011;65834;52.364;9.754;2023-12-14T09:17:52;9.83;;;3.60;;
76863;SDS011;65834;52.364;9.754;2023-12-14T09:20:22;8.43;;;3.33;;
76863;SDS011;65834;52.364;9.754;2023-12-14T09:22:52;8.77;;;3.03;;
76863;SDS011;65834;52.364;9.754;2023-12-14T09:25:24;9.17;;;2.80;;
76863;SDS011;65834;52.364;9.754;2023-12-14T09:27:54;9.32;;;3.10;;
76863;SDS011;65834;52.364;9.754;2023-12-14T09:30:23;7.40;;;2.87;;
76863;SDS011;65834;52.364;9.754;2023-12-14T09:32:53;9.37;;;3.23;;
76863;SDS011;65834;52.364;9.754;2023-12-14T09:35:23;9.40;;;3.60;;
76863;SDS011;65834;52.364;9.754;2023-12-14T09:37:52;9.67;;;3.60;;
76863;SDS011;65834;52.364;9.754;2023-12-14T09:40:25;9.67;;;3.00;;
76863;SDS011;65834;52.364;9.754;2023-12-14T09:42:55;9.63;;;3.10;;
76863;SDS011;65834;52.364;9.754;2023-12-14T09:45:27;10.30;;;3.30;;
76863;SDS011;65834;52.364;9.754;2023-12-14T09:47:58;8.27;;;2.97;;
76863;SDS011;65834;52.364;9.754;2023-12-14T09:50:32;9.60;;;3.00;;
76863;SDS011;65834;52.364;9.754;2023-12-14T09:53:03;8.63;;;3.17;;
76863;SDS011;65834;52.364;9.754;2023-12-14T09:55:36;8.57;;;3.10;;
76863;SDS011;65834;52.364;9.754;2023-12-14T09:58:06;9.45;;;3.85;;
76863;SDS011;65834;52.364;9.754;2023-12-14T10:00:38;8.77;;;3.17;;
76863;SDS011;65834;52.364;9.754;2023-12-14T10:03:19;11.20;;;3.58;;
76863;SDS011;65834;52.364;9.754;2023-12-14T10:05:51;7.67;;;3.27;;
76863;SDS011;65834;52.364;9.754;2023-12-14T10:08:22;10.17;;;3.97;;
76863;SDS011;65834;52.364;9.754;2023-12-14T10:10:55;10.73;;;3.53;;
76863;SDS011;65834;52.364;9.754;2023-12-14T10:13:37;12.13;;;3.60;;
76863;SDS011;65834;52.364;9.754;2023-12-14T10:16:09;8.77;;;3.13;;
76863;SDS011;65834;52.364;9.754;2023-12-14T10:18:41;10.77;;;3.40;;
76863;SDS011;65834;52.364;9.754;2023-12-14T10:21:11;8.87;;;3.30;;
76863;SDS011;65834;52.364;9.754;2023-12-14T10:23:40;12.33;;;4.23;;
76863;SDS011;65834;52.364;9.754;2023-12-14T10:26:15;11.10;;;3.67;;
76863;SDS011;65834;52.364;9.754;2023-12-14T10:28:45;10.18;;;3.85;;
76863;SDS011;65834;52.364;9.754;2023-12-14T10:31:15;10.93;;;3.50;;
76863;SDS011;65834;52.364;9.754;2023-12-14T10:33:45;10.00;;;3.53;;
76863;SDS011;65834;52.364;9.754;2023-12-14T10:36:15;11.27;;;3.67;;
76863;SDS011;65834;52.364;9.754;2023-12-14T10:38:49;9.87;;;3.70;;
76863;SDS011;65834;52.364;9.754;2023-12-14T10:41:24;10.25;;;3.67;;
76863;SDS011;65834;52.364;9.754;2023-12-14T10:43:56;10.07;;;3.63;;
76863;SDS011;65834;52.364;9.754;2023-12-14T10:46:46;11.67;;;3.87;;
76863;SDS011;65834;52.364;9.754;2023-12-14T10:49:17;11.10;;;3.77;;
76863;SDS011;65834;52.364;9.754;2023-12-14T10:51:47;11.10;;;4.27;;
76863;SDS011;65834;52.364;9.754;2023-12-14T10:54:17;12.43;;;4.07;;
76863;SDS011;65834;52.364;9.754;2023-12-14T10:56:50;12.03;;;4.37;;
76863;SDS011;65834;52.364;9.754;2023-12-14T10:59:24;10.33;;;3.80;;
76863;SDS011;65834;52.364;9.754;2023-12-14T11:01:54;11.03;;;3.97;;
76863;SDS011;65834;52.364;9.754;2023-12-14T11:04:25;13.47;;;4.60;;
76863;SDS011;65834;52.364;9.754;2023-12-14T11:06:58;9.60;;;4.10;;
76863;SDS011;65834;52.364;9.754;2023-12-14T11:09:28;11.10;;;4.30;;
76863;SDS011;65834;52.364;9.754;2023-12-14T11:12:02;9.82;;;3.53;;
76863;SDS011;65834;52.364;9.754;2023-12-14T11:14:32;11.48;;;4.40;;
76863;SDS011;65834;52.364;9.754;2023-12-14T11:17:05;10.40;;;3.70;;
76863;SDS011;65834;52.364;9.754;2023-12-14T11:19:35;12.20;;;4.33;;
76863;SDS011;65834;52.364;9.754;2023-12-14T11:22:09;13.27;;;3.67;;
76863;SDS011;65834;52.364;9.754;2023-12-14T11:24:53;9.17;;;3.73;;
76863;SDS011;65834;52.364;9.754;2023-12-14T11:27:29;8.37;;;3.63;;
76863;SDS011;65834;52.364;9.754;2023-12-14T11:30:01;8.43;;;3.27;;
76863;SDS011;65834;52.364;9.754;2023-12-14T11:32:32;11.60;;;4.13;;
76863;SDS011;65834;52.364;9.754;2023-12-14T11:35:01;10.73;;;3.60;;
76863;SDS011;65834;52.364;9.754;2023-12-14T11:37:31;9.37;;;3.63;;
76863;SDS011;65834;52.364;9.754;2023-12-14T11:40:02;8.73;;;3.20;;
76863;SDS011;65834;52.364;9.754;2023-12-14T11:42:36;10.13;;;3.33;;
76863;SDS011;65834;52.364;9.754;2023-12-14T11:45:06;10.13;;;3.60;;
76863;SDS011;65834;52.364;9.754;2023-12-14T11:47:36;13.43;;;3.83;;
76863;SDS011;65834;52.364;9.754;2023-12-14T11:50:07;11.17;;;3.63;;
76863;SDS011;65834;52.364;9.754;2023-12-14T11:52:38;10.43;;;3.87;;
76863;SDS011;65834;52.364;9.754;2023-12-14T11:55:09;11.10;;;3.73;;
76863;SDS011;65834;52.364;9.754;2023-12-14T11:57:48;10.83;;;3.70;;
76863;SDS011;65834;52.364;9.754;2023-12-14T12:00:22;10.03;;;3.33;;
76863;SDS011;65834;52.364;9.754;2023-12-14T12:02:52;11.90;;;3.43;;
76863;SDS011;65834;52.364;9.754;2023-12-14T12:05:37;9.97;;;3.33;;
76863;SDS011;65834;52.364;9.754;2023-12-14T12:08:08;11.27;;;4.13;;
76863;SDS011;65834;52.364;9.754;2023-12-14T12:10:38;11.20;;;3.50;;
76863;SDS011;65834;52.364;9.754;2023-12-14T12:13:13;11.47;;;4.13;;
76863;SDS011;65834;52.364;9.754;2023-12-14T12:15:44;11.60;;;3.63;;
76863;SDS011;65834;52.364;9.754;2023-12-14T12:18:14;10.00;;;3.10;;
76863;SDS011;65834;52.364;9.754;2023-12-14T12:20:45;11.00;;;3.90;;
76863;SDS011;65834;52.364;9.754;2023-12-14T12:23:15;10.53;;;3.40;;
76863;SDS011;65834;52.364;9.754;2023-12-14T12:25:45;9.13;;;3.30;;
76863;SDS011;65834;52.364;9.754;2023-12-14T12:28:17;9.83;;;3.57;;
76863;SDS011;65834;52.364;9.754;2023-12-14T12:30:47;10.85;;;3.58;;
76863;SDS011;65834;52.364;9.754;2023-12-14T12:33:16;11.23;;;4.10;;
76863;SDS011;65834;52.364;9.754;2023-12-14T12:35:47;10.67;;;3.43;;
76863;SDS011;65834;52.364;9.754;2023-12-14T12:38:16;11.57;;;4.03;;
76863;SDS011;65834;52.364;9.754;2023-12-14T12:40:46;10.00;;;3.47;;
76863;SDS011;65834;52.364;9.754;2023-12-14T12:43:18;10.73;;;3.57;;
76863;SDS011;65834;52.364;9.754;2023-12-14T12:45:48;14.40;;;3.85;;
76863;SDS011;65834;52.364;9.754;2023-12-14T12:48:17;11.90;;;3.60;;
76863;SDS011;65834;52.364;9.754;2023-12-14T12:50:52;10.70;;;3.87;;
76863;SDS011;65834;52.364;9.754;2023-12-14T12:53:21;11.40;;;3.53;;
76863;SDS011;65834;52.364;9.754;2023-12-14T12:55:51;12.87;;;4.30;;
76863;SDS011;65834;52.364;9.754;2023-12-14T12:58:23;11.37;;;4.60;;
76863;SDS011;65834;52.364;9.754;2023-12-14T13:00:52;12.30;;;4.07;;
76863;SDS011;65834;52.364;9.754;2023-12-14T13:03:23;11.27;;;4.23;;
76863;SDS011;65834;52.364;9.754;2023-12-14T13:05:53;11.60;;;3.87;;
76863;SDS011;65834;52.364;9.754;2023-12-14T13:08:23;11.67;;;3.93;;
76863;SDS011;65834;52.364;9.754;2023-12-14T13:10:53;11.30;;;3.90;;
76863;SDS011;65834;52.364;9.754;2023-12-14T13:13:25;11.37;;;4.40;;
76863;SDS011;65834;52.364;9.754;2023-12-14T13:15:54;10.93;;;3.70;;
76863;SDS011;65834;52.364;9.754;2023-12-14T13:18:24;12.77;;;4.10;;
76863;SDS011;65834;52.364;9.754;2023-12-14T13:20:53;11.27;;;3.73;;
76863;SDS011;65834;52.364;9.754;2023-12-14T13:23:23;10.63;;;3.63;;
76863;SDS011;65834;52.364;9.754;2023-12-14T13:25:53;10.10;;;3.30;;
76863;SDS011;65834;52.364;9.754;2023-12-14T13:28:25;10.93;;;3.70;;
76863;SDS011;65834;52.364;9.754;2023-12-14T13:30:55;12.60;;;4.20;;
76863;SDS011;65834;52.364;9.754;2023-12-14T13:33:24;10.97;;;3.67;;
76863;SDS011;65834;52.364;9.754;2023-12-14T13:35:54;11.90;;;3.63;;
76863;SDS011;65834;52.364;9.754;2023-12-14T13:38:24;11.33;;;3.67;;
76863;SDS011;65834;52.364;9.754;2023-12-14T13:40:54;11.40;;;3.50;;
76863;SDS011;65834;52.364;9.754;2023-12-14T13:43:26;12.47;;;4.40;;
76863;SDS011;65834;52.364;9.754;2023-12-14T13:45:56;9.80;;;3.28;;
76863;SDS011;65834;52.364;9.754;2023-12-14T13:48:43;14.37;;;4.23;;
76863;SDS011;65834;52.364;9.754;2023-12-14T13:51:13;12.43;;;4.50;;
76863;SDS011;65834;52.364;9.754;2023-12-14T13:53:43;11.07;;;4.00;;
76863;SDS011;65834;52.364;9.754;2023-12-14T13:56:13;12.70;;;4.30;;
76863;SDS011;65834;52.364;9.754;2023-12-14T13:58:45;12.23;;;4.00;;
76863;SDS011;65834;52.364;9.754;2023-12-14T14:01:15;18.95;;;4.10;;
76863;SDS011;65834;52.364;9.754;2023-12-14T14:03:45;12.03;;;4.20;;
76863;SDS011;65834;52.364;9.754;2023-12-14T14:06:15;14.03;;;4.80;;
76863;SDS011;65834;52.364;9.754;2023-12-14T14:08:46;13.13;;;4.50;;
76863;SDS011;65834;52.364;9.754;2023-12-14T14:11:16;12.83;;;4.73;;
76863;SDS011;65834;52.364;9.754;2023-12-14T14:13:49;14.17;;;5.00;;
76863;SDS011;65834;52.364;9.754;2023-12-14T14:16:18;13.95;;;5.60;;
76863;SDS011;65834;52.364;9.754;2023-12-14T14:18:50;13.35;;;4.65;;
76863;SDS011;65834;52.364;9.754;2023-12-14T14:21:20;13.47;;;4.90;;
76863;SDS011;65834;52.364;9.754;2023-12-14T14:23:50;13.93;;;5.10;;
76863;SDS011;65834;52.364;9.754;2023-12-14T14:26:19;13.43;;;4.90;;
76863;SDS011;65834;52.364;9.754;2023-12-14T14:28:51;13.10;;;4.67;;
76863;SDS011;65834;52.364;9.754;2023-12-14T14:31:26;14.63;;;5.33;;
76863;SDS011;65834;52.364;9.754;2023-12-14T14:33:58;12.88;;;5.03;;
76863;SDS011;65834;52.364;9.754;2023-12-14T14:36:28;15.33;;;5.70;;
76863;SDS011;65834;52.364;9.754;2023-12-14T14:38:58;16.07;;;5.87;;
76863;SDS011;65834;52.364;9.754;2023-12-14T14:41:27;13.53;;;5.27;;
76863;SDS011;65834;52.364;9.754;2023-12-14T14:43:59;16.40;;;5.43;;
76863;SDS011;65834;52.364;9.754;2023-12-14T14:46:29;14.88;;;5.53;;
76863;SDS011;65834;52.364;9.754;2023-12-14T14:48:59;15.43;;;5.60;;
76863;SDS011;65834;52.364;9.754;2023-12-14T14:51:29;13.77;;;5.67;;
76863;SDS011;65834;52.364;9.754;2023-12-14T14:53:58;16.60;;;6.50;;
76863;SDS011;65834;52.364;9.754;2023-12-14T14:56:28;14.63;;;5.33;;
76863;SDS011;65834;52.364;9.754;2023-12-14T14:59:00;14.60;;;5.57;;